sensor_id;sensor_type;location;lat;lon;timestamp;P1;durP1;ratioP1;P2;durP2;ratioP2
67819;SDS011;54618;52.018;5.576;2022-09-23T00:01:31;2.65;;;1.67;;
67819;SDS011;54618;52.018;5.576;2022-09-23T00:03:57;3.08;;;1.60;;
67819;SDS011;54618;52.018;5.576;2022-09-23T00:06:24;3.17;;;1.55;;
67819;SDS011;54618;52.018;5.576;2022-09-23T00:08:51;2.30;;;1.55;;
67819;SDS011;54618;52.018;5.576;2022-09-23T00:13:49;3.47;;;1.92;;
67819;SDS011;54618;52.018;5.576;2022-09-23T00:16:17;3.42;;;1.90;;
67819;SDS011;54618;52.018;5.576;2022-09-23T00:18:44;3.45;;;1.80;;
67819;SDS011;54618;52.018;5.576;2022-09-23T00:21:11;3.00;;;1.90;;
67819;SDS011;54618;52.018;5.576;2022-09-23T00:23:38;3.03;;;1.70;;
67819;SDS011;54618;52.018;5.576;2022-09-23T00:26:05;2.83;;;1.67;;
67819;SDS011;54618;52.018;5.576;2022-09-23T00:28:32;3.13;;;1.70;;
67819;SDS011;54618;52.018;5.576;2022-09-23T00:31:06;2.33;;;1.58;;
67819;SDS011;54618;52.018;5.576;2022-09-23T00:33:33;4.15;;;2.00;;
67819;SDS011;54618;52.018;5.576;2022-09-23T00:35:59;4.57;;;1.88;;
67819;SDS011;54618;52.018;5.576;2022-09-23T00:38:30;2.83;;;1.60;;
67819;SDS011;54618;52.018;5.576;2022-09-23T00:40:56;2.88;;;1.67;;
67819;SDS011;54618;52.018;5.576;2022-09-23T00:43:38;2.35;;;1.60;;
67819;SDS011;54618;52.018;5.576;2022-09-23T00:46:11;3.53;;;1.80;;
67819;SDS011;54618;52.018;5.576;2022-09-23T00:48:42;2.50;;;1.60;;
67819;SDS011;54618;52.018;5.576;2022-09-23T00:51:09;2.40;;;1.60;;
67819;SDS011;54618;52.018;5.576;2022-09-23T00:53:38;2.53;;;1.70;;
67819;SDS011;54618;52.018;5.576;2022-09-23T00:56:05;3.03;;;1.70;;
67819;SDS011;54618;52.018;5.576;2022-09-23T00:58:35;2.60;;;1.52;;
67819;SDS011;54618;52.018;5.576;2022-09-23T01:01:03;2.90;;;1.90;;
67819;SDS011;54618;52.018;5.576;2022-09-23T01:03:29;3.78;;;1.85;;
67819;SDS011;54618;52.018;5.576;2022-09-23T01:05:55;2.65;;;1.60;;
67819;SDS011;54618;52.018;5.576;2022-09-23T01:08:21;2.95;;;1.80;;
67819;SDS011;54618;52.018;5.576;2022-09-23T01:10:56;2.53;;;1.70;;
67819;SDS011;54618;52.018;5.576;2022-09-23T01:24:51;2.83;;;1.70;;
67819;SDS011;54618;52.018;5.576;2022-09-23T01:37:49;3.22;;;1.80;;
67819;SDS011;54618;52.018;5.576;2022-09-23T01:40:21;2.42;;;1.60;;
67819;SDS011;54618;52.018;5.576;2022-09-23T01:42:56;3.17;;;1.85;;
67819;SDS011;54618;52.018;5.576;2022-09-23T01:45:44;2.45;;;1.60;;
67819;SDS011;54618;52.018;5.576;2022-09-23T01:48:20;3.28;;;1.85;;
67819;SDS011;54618;52.018;5.576;2022-09-23T01:51:06;3.58;;;1.70;;
67819;SDS011;54618;52.018;5.576;2022-09-23T01:53:46;3.05;;;1.70;;
67819;SDS011;54618;52.018;5.576;2022-09-23T01:59:43;3.33;;;1.77;;
67819;SDS011;54618;52.018;5.576;2022-09-23T02:02:18;2.33;;;1.73;;
67819;SDS011;54618;52.018;5.576;2022-09-23T02:04:50;2.58;;;1.70;;
67819;SDS011;54618;52.018;5.576;2022-09-23T02:10:24;3.15;;;1.70;;
67819;SDS011;54618;52.018;5.576;2022-09-23T02:13:07;3.80;;;1.67;;
67819;SDS011;54618;52.018;5.576;2022-09-23T02:15:40;3.83;;;1.85;;
67819;SDS011;54618;52.018;5.576;2022-09-23T02:18:14;3.53;;;1.98;;
67819;SDS011;54618;52.018;5.576;2022-09-23T02:20:43;2.92;;;1.58;;
67819;SDS011;54618;52.018;5.576;2022-09-23T02:23:12;2.65;;;1.92;;
67819;SDS011;54618;52.018;5.576;2022-09-23T02:26:02;4.10;;;1.73;;
67819;SDS011;54618;52.018;5.576;2022-09-23T02:28:47;2.45;;;1.60;;
67819;SDS011;54618;52.018;5.576;2022-09-23T02:31:20;3.50;;;1.90;;
67819;SDS011;54618;52.018;5.576;2022-09-23T02:33:54;3.42;;;1.95;;
67819;SDS011;54618;52.018;5.576;2022-09-23T02:36:25;2.67;;;1.67;;
67819;SDS011;54618;52.018;5.576;2022-09-23T02:38:57;3.05;;;1.90;;
67819;SDS011;54618;52.018;5.576;2022-09-23T02:41:31;2.47;;;1.75;;
67819;SDS011;54618;52.018;5.576;2022-09-23T02:44:10;2.78;;;1.90;;
67819;SDS011;54618;52.018;5.576;2022-09-23T02:46:38;3.33;;;2.08;;
67819;SDS011;54618;52.018;5.576;2022-09-23T02:49:08;3.08;;;1.75;;
67819;SDS011;54618;52.018;5.576;2022-09-23T02:51:41;2.90;;;1.83;;
67819;SDS011;54618;52.018;5.576;2022-09-23T02:54:09;3.00;;;1.88;;
67819;SDS011;54618;52.018;5.576;2022-09-23T02:56:39;3.45;;;1.90;;
67819;SDS011;54618;52.018;5.576;2022-09-23T02:59:05;3.35;;;1.80;;
67819;SDS011;54618;52.018;5.576;2022-09-23T03:01:39;3.58;;;1.90;;
67819;SDS011;54618;52.018;5.576;2022-09-23T03:15:54;2.80;;;2.00;;
67819;SDS011;54618;52.018;5.576;2022-09-23T03:18:41;3.42;;;2.25;;
67819;SDS011;54618;52.018;5.576;2022-09-23T03:21:14;3.33;;;1.90;;
67819;SDS011;54618;52.018;5.576;2022-09-23T03:23:47;4.50;;;2.00;;
67819;SDS011;54618;52.018;5.576;2022-09-23T03:26:16;4.25;;;2.03;;
67819;SDS011;54618;52.018;5.576;2022-09-23T03:28:45;2.95;;;2.05;;
67819;SDS011;54618;52.018;5.576;2022-09-23T03:31:12;3.88;;;2.30;;
67819;SDS011;54618;52.018;5.576;2022-09-23T03:33:49;2.83;;;1.95;;
67819;SDS011;54618;52.018;5.576;2022-09-23T03:36:27;4.38;;;2.33;;
67819;SDS011;54618;52.018;5.576;2022-09-23T03:42:20;3.58;;;2.20;;
67819;SDS011;54618;52.018;5.576;2022-09-23T03:44:52;3.30;;;2.00;;
67819;SDS011;54618;52.018;5.576;2022-09-23T03:47:21;3.90;;;2.10;;
67819;SDS011;54618;52.018;5.576;2022-09-23T03:49:48;3.50;;;2.20;;
67819;SDS011;54618;52.018;5.576;2022-09-23T03:52:15;4.38;;;2.10;;
67819;SDS011;54618;52.018;5.576;2022-09-23T03:54:42;3.72;;;2.40;;
67819;SDS011;54618;52.018;5.576;2022-09-23T03:57:09;3.10;;;2.15;;
67819;SDS011;54618;52.018;5.576;2022-09-23T03:59:35;5.68;;;2.53;;
67819;SDS011;54618;52.018;5.576;2022-09-23T04:02:01;3.67;;;2.08;;
67819;SDS011;54618;52.018;5.576;2022-09-23T04:04:28;2.63;;;1.80;;
67819;SDS011;54618;52.018;5.576;2022-09-23T04:06:54;3.47;;;2.00;;
67819;SDS011;54618;52.018;5.576;2022-09-23T04:09:20;3.47;;;2.17;;
67819;SDS011;54618;52.018;5.576;2022-09-23T04:11:47;3.00;;;2.10;;
67819;SDS011;54618;52.018;5.576;2022-09-23T04:14:16;4.30;;;2.58;;
67819;SDS011;54618;52.018;5.576;2022-09-23T04:16:43;4.13;;;2.42;;
67819;SDS011;54618;52.018;5.576;2022-09-23T04:19:09;4.20;;;2.80;;
67819;SDS011;54618;52.018;5.576;2022-09-23T04:21:36;4.25;;;2.20;;
67819;SDS011;54618;52.018;5.576;2022-09-23T04:24:02;4.15;;;2.40;;
67819;SDS011;54618;52.018;5.576;2022-09-23T04:26:27;3.42;;;2.20;;
67819;SDS011;54618;52.018;5.576;2022-09-23T04:28:54;3.42;;;2.33;;
67819;SDS011;54618;52.018;5.576;2022-09-23T04:31:20;4.18;;;2.28;;
67819;SDS011;54618;52.018;5.576;2022-09-23T04:33:47;2.80;;;2.10;;
67819;SDS011;54618;52.018;5.576;2022-09-23T04:36:13;3.58;;;2.22;;
67819;SDS011;54618;52.018;5.576;2022-09-23T04:38:41;3.72;;;2.30;;
67819;SDS011;54618;52.018;5.576;2022-09-23T04:41:08;3.00;;;2.13;;
67819;SDS011;54618;52.018;5.576;2022-09-23T04:43:34;4.95;;;2.70;;
67819;SDS011;54618;52.018;5.576;2022-09-23T04:46:00;2.72;;;2.00;;
67819;SDS011;54618;52.018;5.576;2022-09-23T04:48:30;4.65;;;2.58;;
67819;SDS011;54618;52.018;5.576;2022-09-23T04:53:31;3.40;;;2.17;;
67819;SDS011;54618;52.018;5.576;2022-09-23T04:56:01;3.97;;;2.20;;
67819;SDS011;54618;52.018;5.576;2022-09-23T04:58:28;4.30;;;2.47;;
67819;SDS011;54618;52.018;5.576;2022-09-23T05:00:53;4.15;;;2.63;;
67819;SDS011;54618;52.018;5.576;2022-09-23T05:03:19;4.22;;;2.50;;
67819;SDS011;54618;52.018;5.576;2022-09-23T05:05:44;5.18;;;2.53;;
67819;SDS011;54618;52.018;5.576;2022-09-23T05:08:11;5.25;;;2.30;;
67819;SDS011;54618;52.018;5.576;2022-09-23T05:10:40;3.35;;;2.28;;
67819;SDS011;54618;52.018;5.576;2022-09-23T05:13:06;4.72;;;2.78;;
67819;SDS011;54618;52.018;5.576;2022-09-23T05:15:32;4.00;;;2.58;;
67819;SDS011;54618;52.018;5.576;2022-09-23T05:17:58;4.03;;;2.60;;
67819;SDS011;54618;52.018;5.576;2022-09-23T05:20:24;5.75;;;2.63;;
67819;SDS011;54618;52.018;5.576;2022-09-23T05:22:49;5.20;;;2.85;;
67819;SDS011;54618;52.018;5.576;2022-09-23T05:25:20;4.10;;;2.72;;
67819;SDS011;54618;52.018;5.576;2022-09-23T05:27:47;5.13;;;2.50;;
67819;SDS011;54618;52.018;5.576;2022-09-23T05:30:13;5.45;;;2.70;;
67819;SDS011;54618;52.018;5.576;2022-09-23T05:32:39;5.07;;;2.55;;
67819;SDS011;54618;52.018;5.576;2022-09-23T05:35:04;3.42;;;2.17;;
67819;SDS011;54618;52.018;5.576;2022-09-23T05:37:30;4.25;;;2.55;;
67819;SDS011;54618;52.018;5.576;2022-09-23T05:39:57;3.95;;;2.70;;
67819;SDS011;54618;52.018;5.576;2022-09-23T05:42:22;3.50;;;2.47;;
67819;SDS011;54618;52.018;5.576;2022-09-23T05:44:48;4.03;;;2.58;;
67819;SDS011;54618;52.018;5.576;2022-09-23T05:47:13;3.25;;;2.47;;
67819;SDS011;54618;52.018;5.576;2022-09-23T05:49:39;5.07;;;2.70;;
67819;SDS011;54618;52.018;5.576;2022-09-23T05:52:05;5.43;;;2.60;;
67819;SDS011;54618;52.018;5.576;2022-09-23T05:54:30;5.47;;;2.70;;
67819;SDS011;54618;52.018;5.576;2022-09-23T05:56:56;4.15;;;2.67;;
67819;SDS011;54618;52.018;5.576;2022-09-23T05:59:22;3.63;;;2.47;;
67819;SDS011;54618;52.018;5.576;2022-09-23T06:01:47;4.30;;;2.70;;
67819;SDS011;54618;52.018;5.576;2022-09-23T06:04:13;3.85;;;2.42;;
67819;SDS011;54618;52.018;5.576;2022-09-23T06:06:39;4.53;;;2.50;;
67819;SDS011;54618;52.018;5.576;2022-09-23T06:09:08;4.25;;;3.00;;
67819;SDS011;54618;52.018;5.576;2022-09-23T06:11:37;4.00;;;2.45;;
67819;SDS011;54618;52.018;5.576;2022-09-23T06:14:03;4.07;;;2.50;;
67819;SDS011;54618;52.018;5.576;2022-09-23T06:16:30;4.00;;;2.63;;
67819;SDS011;54618;52.018;5.576;2022-09-23T06:18:57;4.05;;;2.50;;
67819;SDS011;54618;52.018;5.576;2022-09-23T06:21:24;4.50;;;2.67;;
67819;SDS011;54618;52.018;5.576;2022-09-23T06:23:50;3.38;;;2.42;;
67819;SDS011;54618;52.018;5.576;2022-09-23T06:26:15;4.25;;;2.60;;
67819;SDS011;54618;52.018;5.576;2022-09-23T06:28:42;3.80;;;2.70;;
67819;SDS011;54618;52.018;5.576;2022-09-23T06:31:12;3.70;;;2.30;;
67819;SDS011;54618;52.018;5.576;2022-09-23T06:33:39;3.75;;;2.25;;
67819;SDS011;54618;52.018;5.576;2022-09-23T06:36:07;4.25;;;2.72;;
67819;SDS011;54618;52.018;5.576;2022-09-23T06:38:33;4.30;;;2.80;;
67819;SDS011;54618;52.018;5.576;2022-09-23T06:40:59;5.00;;;2.63;;
67819;SDS011;54618;52.018;5.576;2022-09-23T06:43:27;4.85;;;2.60;;
67819;SDS011;54618;52.018;5.576;2022-09-23T06:45:56;4.78;;;2.50;;
67819;SDS011;54618;52.018;5.576;2022-09-23T06:48:23;5.20;;;2.80;;
67819;SDS011;54618;52.018;5.576;2022-09-23T06:50:50;4.32;;;2.60;;
67819;SDS011;54618;52.018;5.576;2022-09-23T06:53:18;4.82;;;2.80;;
67819;SDS011;54618;52.018;5.576;2022-09-23T06:55:47;4.30;;;2.70;;
67819;SDS011;54618;52.018;5.576;2022-09-23T06:58:13;6.63;;;2.67;;
67819;SDS011;54618;52.018;5.576;2022-09-23T07:00:39;4.22;;;2.85;;
67819;SDS011;54618;52.018;5.576;2022-09-23T07:03:05;4.13;;;2.58;;
67819;SDS011;54618;52.018;5.576;2022-09-23T07:05:32;4.88;;;2.45;;
67819;SDS011;54618;52.018;5.576;2022-09-23T07:07:58;5.38;;;2.90;;
67819;SDS011;54618;52.018;5.576;2022-09-23T07:10:24;5.07;;;2.72;;
67819;SDS011;54618;52.018;5.576;2022-09-23T07:12:53;4.15;;;2.72;;
67819;SDS011;54618;52.018;5.576;2022-09-23T07:15:19;4.22;;;2.30;;
67819;SDS011;54618;52.018;5.576;2022-09-23T07:17:45;3.67;;;2.47;;
67819;SDS011;54618;52.018;5.576;2022-09-23T07:20:10;5.25;;;2.65;;
67819;SDS011;54618;52.018;5.576;2022-09-23T07:22:36;4.55;;;2.65;;
67819;SDS011;54618;52.018;5.576;2022-09-23T07:25:02;4.53;;;2.63;;
67819;SDS011;54618;52.018;5.576;2022-09-23T07:27:28;4.22;;;2.80;;
67819;SDS011;54618;52.018;5.576;2022-09-23T07:29:54;4.95;;;2.78;;
67819;SDS011;54618;52.018;5.576;2022-09-23T07:32:20;5.13;;;2.78;;
67819;SDS011;54618;52.018;5.576;2022-09-23T07:34:47;4.57;;;2.67;;
67819;SDS011;54618;52.018;5.576;2022-09-23T07:37:13;3.58;;;2.60;;
67819;SDS011;54618;52.018;5.576;2022-09-23T07:39:41;4.25;;;2.38;;
67819;SDS011;54618;52.018;5.576;2022-09-23T07:42:08;3.88;;;2.72;;
67819;SDS011;54618;52.018;5.576;2022-09-23T07:44:37;4.70;;;3.00;;
67819;SDS011;54618;52.018;5.576;2022-09-23T07:47:03;5.78;;;2.70;;
67819;SDS011;54618;52.018;5.576;2022-09-23T07:49:29;3.92;;;2.60;;
67819;SDS011;54618;52.018;5.576;2022-09-23T07:51:54;6.22;;;3.67;;
67819;SDS011;54618;52.018;5.576;2022-09-23T07:54:20;7.22;;;3.50;;
67819;SDS011;54618;52.018;5.576;2022-09-23T07:56:46;6.53;;;3.72;;
67819;SDS011;54618;52.018;5.576;2022-09-23T07:59:12;6.85;;;3.38;;
67819;SDS011;54618;52.018;5.576;2022-09-23T08:01:45;7.72;;;3.78;;
67819;SDS011;54618;52.018;5.576;2022-09-23T08:04:15;4.55;;;3.38;;
67819;SDS011;54618;52.018;5.576;2022-09-23T08:06:55;6.15;;;3.17;;
67819;SDS011;54618;52.018;5.576;2022-09-23T08:09:25;5.70;;;3.70;;
67819;SDS011;54618;52.018;5.576;2022-09-23T08:11:53;5.03;;;3.35;;
67819;SDS011;54618;52.018;5.576;2022-09-23T08:14:19;5.90;;;3.33;;
67819;SDS011;54618;52.018;5.576;2022-09-23T08:16:46;6.03;;;3.95;;
67819;SDS011;54618;52.018;5.576;2022-09-23T08:19:13;7.05;;;4.55;;
67819;SDS011;54618;52.018;5.576;2022-09-23T08:21:39;6.60;;;3.90;;
67819;SDS011;54618;52.018;5.576;2022-09-23T08:24:06;6.47;;;3.60;;
67819;SDS011;54618;52.018;5.576;2022-09-23T08:26:32;6.13;;;3.63;;
67819;SDS011;54618;52.018;5.576;2022-09-23T08:28:59;5.47;;;3.60;;
67819;SDS011;54618;52.018;5.576;2022-09-23T08:31:25;4.72;;;2.97;;
67819;SDS011;54618;52.018;5.576;2022-09-23T08:33:54;5.82;;;3.65;;
67819;SDS011;54618;52.018;5.576;2022-09-23T08:36:21;5.25;;;3.20;;
67819;SDS011;54618;52.018;5.576;2022-09-23T08:38:47;5.88;;;3.78;;
67819;SDS011;54618;52.018;5.576;2022-09-23T08:43:57;7.03;;;3.67;;
67819;SDS011;54618;52.018;5.576;2022-09-23T08:46:28;5.43;;;3.40;;
67819;SDS011;54618;52.018;5.576;2022-09-23T08:48:57;6.55;;;3.50;;
67819;SDS011;54618;52.018;5.576;2022-09-23T08:51:27;6.18;;;3.70;;
67819;SDS011;54618;52.018;5.576;2022-09-23T08:53:59;6.22;;;3.53;;
67819;SDS011;54618;52.018;5.576;2022-09-23T08:56:25;9.82;;;3.92;;
67819;SDS011;54618;52.018;5.576;2022-09-23T09:09:31;6.68;;;3.30;;
67819;SDS011;54618;52.018;5.576;2022-09-23T09:12:13;7.35;;;3.60;;
67819;SDS011;54618;52.018;5.576;2022-09-23T09:25:02;5.30;;;3.22;;
67819;SDS011;54618;52.018;5.576;2022-09-23T09:27:46;6.90;;;3.67;;
67819;SDS011;54618;52.018;5.576;2022-09-23T09:30:13;6.40;;;3.53;;
67819;SDS011;54618;52.018;5.576;2022-09-23T09:32:44;5.38;;;3.50;;
67819;SDS011;54618;52.018;5.576;2022-09-23T09:35:35;4.53;;;3.10;;
67819;SDS011;54618;52.018;5.576;2022-09-23T09:38:14;6.05;;;3.08;;
67819;SDS011;54618;52.018;5.576;2022-09-23T09:40:41;6.53;;;3.20;;
67819;SDS011;54618;52.018;5.576;2022-09-23T09:43:15;6.03;;;3.33;;
67819;SDS011;54618;52.018;5.576;2022-09-23T09:45:49;5.68;;;3.42;;
67819;SDS011;54618;52.018;5.576;2022-09-23T09:48:44;5.60;;;3.35;;
67819;SDS011;54618;52.018;5.576;2022-09-23T09:51:24;5.55;;;3.30;;
67819;SDS011;54618;52.018;5.576;2022-09-23T09:53:51;5.50;;;3.15;;
67819;SDS011;54618;52.018;5.576;2022-09-23T09:56:20;6.57;;;3.47;;
67819;SDS011;54618;52.018;5.576;2022-09-23T10:03:45;4.68;;;3.25;;
67819;SDS011;54618;52.018;5.576;2022-09-23T10:09:02;6.10;;;3.28;;
67819;SDS011;54618;52.018;5.576;2022-09-23T10:11:33;5.60;;;3.45;;
67819;SDS011;54618;52.018;5.576;2022-09-23T10:16:28;6.13;;;3.00;;
67819;SDS011;54618;52.018;5.576;2022-09-23T10:19:02;4.60;;;3.40;;
67819;SDS011;54618;52.018;5.576;2022-09-23T10:21:35;8.48;;;3.10;;
67819;SDS011;54618;52.018;5.576;2022-09-23T10:24:02;5.30;;;3.08;;
67819;SDS011;54618;52.018;5.576;2022-09-23T10:26:37;4.32;;;2.90;;
67819;SDS011;54618;52.018;5.576;2022-09-23T10:29:19;5.45;;;2.83;;
67819;SDS011;54618;52.018;5.576;2022-09-23T10:31:48;5.65;;;3.08;;
67819;SDS011;54618;52.018;5.576;2022-09-23T10:34:25;4.35;;;2.70;;
67819;SDS011;54618;52.018;5.576;2022-09-23T10:37:00;5.40;;;2.95;;
67819;SDS011;54618;52.018;5.576;2022-09-23T10:39:32;3.25;;;2.60;;
67819;SDS011;54618;52.018;5.576;2022-09-23T10:42:17;3.65;;;2.45;;
67819;SDS011;54618;52.018;5.576;2022-09-23T10:45:21;4.47;;;2.88;;
67819;SDS011;54618;52.018;5.576;2022-09-23T10:56:29;4.68;;;2.60;;
67819;SDS011;54618;52.018;5.576;2022-09-23T11:01:54;3.70;;;2.60;;
67819;SDS011;54618;52.018;5.576;2022-09-23T11:13:22;4.47;;;2.92;;
67819;SDS011;54618;52.018;5.576;2022-09-23T11:24:55;4.75;;;2.58;;
67819;SDS011;54618;52.018;5.576;2022-09-23T11:27:46;5.03;;;2.97;;
67819;SDS011;54618;52.018;5.576;2022-09-23T11:30:18;4.28;;;2.53;;
67819;SDS011;54618;52.018;5.576;2022-09-23T11:35:40;4.25;;;2.50;;
67819;SDS011;54618;52.018;5.576;2022-09-23T11:38:21;2.75;;;2.13;;
67819;SDS011;54618;52.018;5.576;2022-09-23T11:41:00;4.80;;;2.40;;
67819;SDS011;54618;52.018;5.576;2022-09-23T11:43:36;4.07;;;2.65;;
67819;SDS011;54618;52.018;5.576;2022-09-23T11:51:42;5.00;;;2.60;;
67819;SDS011;54618;52.018;5.576;2022-09-23T11:54:32;4.55;;;2.60;;
67819;SDS011;54618;52.018;5.576;2022-09-23T11:57:22;4.25;;;2.50;;
67819;SDS011;54618;52.018;5.576;2022-09-23T11:59:59;4.55;;;2.78;;
67819;SDS011;54618;52.018;5.576;2022-09-23T12:05:37;4.28;;;2.38;;
67819;SDS011;54618;52.018;5.576;2022-09-23T12:08:09;3.90;;;2.60;;
67819;SDS011;54618;52.018;5.576;2022-09-23T12:22:21;4.30;;;2.58;;
67819;SDS011;54618;52.018;5.576;2022-09-23T12:27:41;4.88;;;2.45;;
67819;SDS011;54618;52.018;5.576;2022-09-23T12:30:19;4.18;;;2.42;;
67819;SDS011;54618;52.018;5.576;2022-09-23T12:32:47;3.90;;;2.30;;
67819;SDS011;54618;52.018;5.576;2022-09-23T12:35:29;3.95;;;2.45;;
67819;SDS011;54618;52.018;5.576;2022-09-23T12:37:59;4.25;;;2.80;;
67819;SDS011;54618;52.018;5.576;2022-09-23T12:40:33;4.05;;;2.50;;
67819;SDS011;54618;52.018;5.576;2022-09-23T12:43:14;4.57;;;2.88;;
67819;SDS011;54618;52.018;5.576;2022-09-23T12:46:18;4.55;;;2.75;;
67819;SDS011;54618;52.018;5.576;2022-09-23T12:51:33;4.45;;;2.80;;
67819;SDS011;54618;52.018;5.576;2022-09-23T12:56:56;4.03;;;2.28;;
67819;SDS011;54618;52.018;5.576;2022-09-23T13:04:54;5.13;;;2.83;;
67819;SDS011;54618;52.018;5.576;2022-09-23T13:07:43;4.75;;;2.60;;
67819;SDS011;54618;52.018;5.576;2022-09-23T13:10:14;4.60;;;2.60;;
67819;SDS011;54618;52.018;5.576;2022-09-23T13:12:51;4.53;;;2.40;;
67819;SDS011;54618;52.018;5.576;2022-09-23T13:15:30;5.55;;;2.60;;
67819;SDS011;54618;52.018;5.576;2022-09-23T13:20:42;6.00;;;2.42;;
67819;SDS011;54618;52.018;5.576;2022-09-23T13:25:50;7.07;;;2.50;;
67819;SDS011;54618;52.018;5.576;2022-09-23T13:28:25;8.95;;;2.78;;
67819;SDS011;54618;52.018;5.576;2022-09-23T13:30:53;6.03;;;2.92;;
67819;SDS011;54618;52.018;5.576;2022-09-23T13:33:30;5.82;;;2.80;;
67819;SDS011;54618;52.018;5.576;2022-09-23T13:36:02;5.35;;;2.60;;
67819;SDS011;54618;52.018;5.576;2022-09-23T13:38:34;5.80;;;2.50;;
67819;SDS011;54618;52.018;5.576;2022-09-23T13:41:01;4.22;;;2.33;;
67819;SDS011;54618;52.018;5.576;2022-09-23T13:43:36;4.57;;;2.30;;
67819;SDS011;54618;52.018;5.576;2022-09-23T13:46:10;6.25;;;2.63;;
67819;SDS011;54618;52.018;5.576;2022-09-23T13:48:41;5.78;;;2.40;;
67819;SDS011;54618;52.018;5.576;2022-09-23T13:51:09;4.90;;;2.50;;
67819;SDS011;54618;52.018;5.576;2022-09-23T13:56:12;5.00;;;2.35;;
67819;SDS011;54618;52.018;5.576;2022-09-23T13:58:39;3.90;;;2.00;;
67819;SDS011;54618;52.018;5.576;2022-09-23T14:01:14;4.43;;;2.15;;
67819;SDS011;54618;52.018;5.576;2022-09-23T14:04:02;4.03;;;2.00;;
67819;SDS011;54618;52.018;5.576;2022-09-23T14:06:28;4.18;;;1.83;;
67819;SDS011;54618;52.018;5.576;2022-09-23T14:08:55;7.68;;;2.20;;
67819;SDS011;54618;52.018;5.576;2022-09-23T14:11:30;4.90;;;2.00;;
67819;SDS011;54618;52.018;5.576;2022-09-23T14:13:57;3.38;;;1.90;;
67819;SDS011;54618;52.018;5.576;2022-09-23T14:16:31;3.28;;;1.92;;
67819;SDS011;54618;52.018;5.576;2022-09-23T14:19:00;3.17;;;2.00;;
67819;SDS011;54618;52.018;5.576;2022-09-23T14:24:15;3.42;;;1.75;;
67819;SDS011;54618;52.018;5.576;2022-09-23T14:26:51;4.95;;;2.13;;
67819;SDS011;54618;52.018;5.576;2022-09-23T14:29:24;3.95;;;2.00;;
67819;SDS011;54618;52.018;5.576;2022-09-23T14:31:57;3.53;;;1.83;;
67819;SDS011;54618;52.018;5.576;2022-09-23T14:34:37;3.95;;;2.00;;
67819;SDS011;54618;52.018;5.576;2022-09-23T14:40:01;3.25;;;1.67;;
67819;SDS011;54618;52.018;5.576;2022-09-23T14:42:36;4.70;;;1.77;;
67819;SDS011;54618;52.018;5.576;2022-09-23T14:45:05;5.07;;;1.92;;
67819;SDS011;54618;52.018;5.576;2022-09-23T14:47:31;4.63;;;1.80;;
67819;SDS011;54618;52.018;5.576;2022-09-23T14:49:58;3.67;;;1.83;;
67819;SDS011;54618;52.018;5.576;2022-09-23T14:52:49;4.05;;;1.73;;
67819;SDS011;54618;52.018;5.576;2022-09-23T14:55:15;4.97;;;1.88;;
67819;SDS011;54618;52.018;5.576;2022-09-23T14:57:42;2.55;;;1.70;;
67819;SDS011;54618;52.018;5.576;2022-09-23T15:00:15;3.60;;;1.80;;
67819;SDS011;54618;52.018;5.576;2022-09-23T15:02:43;2.83;;;1.70;;
67819;SDS011;54618;52.018;5.576;2022-09-23T15:05:31;4.03;;;1.88;;
67819;SDS011;54618;52.018;5.576;2022-09-23T15:08:06;4.03;;;1.80;;
67819;SDS011;54618;52.018;5.576;2022-09-23T15:10:35;3.92;;;1.60;;
67819;SDS011;54618;52.018;5.576;2022-09-23T15:15:37;5.85;;;2.17;;
67819;SDS011;54618;52.018;5.576;2022-09-23T15:18:05;3.83;;;2.10;;
67819;SDS011;54618;52.018;5.576;2022-09-23T15:20:39;5.05;;;2.20;;
67819;SDS011;54618;52.018;5.576;2022-09-23T15:23:04;5.40;;;1.80;;
67819;SDS011;54618;52.018;5.576;2022-09-23T15:25:34;4.05;;;1.75;;
67819;SDS011;54618;52.018;5.576;2022-09-23T15:30:36;5.20;;;1.88;;
67819;SDS011;54618;52.018;5.576;2022-09-23T15:33:03;3.20;;;1.80;;
67819;SDS011;54618;52.018;5.576;2022-09-23T15:35:29;3.40;;;1.70;;
67819;SDS011;54618;52.018;5.576;2022-09-23T15:37:59;2.90;;;1.60;;
67819;SDS011;54618;52.018;5.576;2022-09-23T15:40:28;3.20;;;1.80;;
67819;SDS011;54618;52.018;5.576;2022-09-23T15:42:56;3.75;;;1.70;;
67819;SDS011;54618;52.018;5.576;2022-09-23T15:45:27;5.22;;;1.90;;
67819;SDS011;54618;52.018;5.576;2022-09-23T15:48:06;3.70;;;1.75;;
67819;SDS011;54618;52.018;5.576;2022-09-23T15:50:36;4.22;;;2.00;;
67819;SDS011;54618;52.018;5.576;2022-09-23T15:53:03;3.78;;;1.73;;
67819;SDS011;54618;52.018;5.576;2022-09-23T15:55:30;4.25;;;1.92;;
67819;SDS011;54618;52.018;5.576;2022-09-23T15:57:55;3.97;;;1.70;;
67819;SDS011;54618;52.018;5.576;2022-09-23T16:00:21;4.30;;;1.83;;
67819;SDS011;54618;52.018;5.576;2022-09-23T16:02:47;5.07;;;1.92;;
67819;SDS011;54618;52.018;5.576;2022-09-23T16:05:27;4.28;;;1.90;;
67819;SDS011;54618;52.018;5.576;2022-09-23T16:08:00;4.35;;;2.03;;
67819;SDS011;54618;52.018;5.576;2022-09-23T16:10:27;4.05;;;1.73;;
67819;SDS011;54618;52.018;5.576;2022-09-23T16:12:53;4.25;;;2.17;;
67819;SDS011;54618;52.018;5.576;2022-09-23T16:15:21;4.38;;;2.05;;
67819;SDS011;54618;52.018;5.576;2022-09-23T16:17:48;3.33;;;1.90;;
67819;SDS011;54618;52.018;5.576;2022-09-23T16:20:14;3.22;;;1.80;;
67819;SDS011;54618;52.018;5.576;2022-09-23T16:25:28;3.78;;;1.70;;
67819;SDS011;54618;52.018;5.576;2022-09-23T16:27:57;3.60;;;1.80;;
67819;SDS011;54618;52.018;5.576;2022-09-23T16:30:24;3.97;;;2.00;;
67819;SDS011;54618;52.018;5.576;2022-09-23T16:32:50;3.10;;;1.77;;
67819;SDS011;54618;52.018;5.576;2022-09-23T16:35:17;4.10;;;1.83;;
67819;SDS011;54618;52.018;5.576;2022-09-23T16:37:45;3.25;;;1.90;;
67819;SDS011;54618;52.018;5.576;2022-09-23T16:40:12;4.07;;;1.75;;
67819;SDS011;54618;52.018;5.576;2022-09-23T16:42:40;3.72;;;2.00;;
67819;SDS011;54618;52.018;5.576;2022-09-23T16:45:06;4.45;;;1.90;;
67819;SDS011;54618;52.018;5.576;2022-09-23T16:47:33;3.42;;;2.13;;
67819;SDS011;54618;52.018;5.576;2022-09-23T16:49:58;4.20;;;2.22;;
67819;SDS011;54618;52.018;5.576;2022-09-23T16:52:24;3.60;;;2.33;;
67819;SDS011;54618;52.018;5.576;2022-09-23T16:54:49;5.22;;;2.20;;
67819;SDS011;54618;52.018;5.576;2022-09-23T16:57:16;3.35;;;2.20;;
67819;SDS011;54618;52.018;5.576;2022-09-23T16:59:41;3.33;;;2.33;;
67819;SDS011;54618;52.018;5.576;2022-09-23T17:02:26;6.35;;;2.20;;
67819;SDS011;54618;52.018;5.576;2022-09-23T17:05:10;5.22;;;2.50;;
67819;SDS011;54618;52.018;5.576;2022-09-23T17:07:38;4.00;;;2.38;;
67819;SDS011;54618;52.018;5.576;2022-09-23T17:10:03;5.10;;;2.55;;
67819;SDS011;54618;52.018;5.576;2022-09-23T17:12:30;4.60;;;2.58;;
67819;SDS011;54618;52.018;5.576;2022-09-23T17:14:59;2.70;;;2.10;;
67819;SDS011;54618;52.018;5.576;2022-09-23T17:17:25;4.30;;;2.50;;
67819;SDS011;54618;52.018;5.576;2022-09-23T17:19:52;5.18;;;2.50;;
67819;SDS011;54618;52.018;5.576;2022-09-23T17:22:17;3.65;;;2.33;;
67819;SDS011;54618;52.018;5.576;2022-09-23T17:24:43;5.97;;;2.88;;
67819;SDS011;54618;52.018;5.576;2022-09-23T17:27:10;4.35;;;2.20;;
67819;SDS011;54618;52.018;5.576;2022-09-23T17:29:35;4.00;;;2.60;;
67819;SDS011;54618;52.018;5.576;2022-09-23T17:32:01;5.72;;;3.30;;
67819;SDS011;54618;52.018;5.576;2022-09-23T17:34:28;5.95;;;2.88;;
67819;SDS011;54618;52.018;5.576;2022-09-23T17:36:57;4.78;;;2.70;;
67819;SDS011;54618;52.018;5.576;2022-09-23T17:39:22;6.60;;;3.58;;
67819;SDS011;54618;52.018;5.576;2022-09-23T17:41:48;7.35;;;2.97;;
67819;SDS011;54618;52.018;5.576;2022-09-23T17:44:13;6.72;;;3.70;;
67819;SDS011;54618;52.018;5.576;2022-09-23T17:46:41;6.18;;;2.97;;
67819;SDS011;54618;52.018;5.576;2022-09-23T17:49:07;7.20;;;3.58;;
67819;SDS011;54618;52.018;5.576;2022-09-23T17:51:33;7.28;;;3.17;;
67819;SDS011;54618;52.018;5.576;2022-09-23T17:53:59;6.03;;;3.72;;
67819;SDS011;54618;52.018;5.576;2022-09-23T17:56:25;7.70;;;4.10;;